sensor_id;sensor_type;location;lat;lon;timestamp;pressure;altitude;pressure_sealevel;temperature;humidity
41062;BME280;26812;42.662;23.352;2023-03-23T00:01:08;94885.16;;;7.30;83.46
41062;BME280;26812;42.662;23.352;2023-03-23T00:03:36;94892.84;;;7.36;83.84
41062;BME280;26812;42.662;23.352;2023-03-23T00:06:02;94890.47;;;7.48;83.86
41062;BME280;26812;42.662;23.352;2023-03-23T00:08:39;94872.19;;;7.51;83.12
41062;BME280;26812;42.662;23.352;2023-03-23T00:11:17;94876.56;;;7.46;83.71
41062;BME280;26812;42.662;23.352;2023-03-23T00:13:45;94887.47;;;7.77;82.31
41062;BME280;26812;42.662;23.352;2023-03-23T00:16:16;94898.59;;;7.85;80.88
41062;BME280;26812;42.662;23.352;2023-03-23T00:18:48;94891.66;;;7.70;80.86
41062;BME280;26812;42.662;23.352;2023-03-23T00:21:18;94875.94;;;7.63;81.16
41062;BME280;26812;42.662;23.352;2023-03-23T00:23:44;94897.94;;;7.65;81.33
41062;BME280;26812;42.662;23.352;2023-03-23T00:26:10;94893.78;;;7.13;82.70
41062;BME280;26812;42.662;23.352;2023-03-23T00:28:36;94884.06;;;7.17;83.50
41062;BME280;26812;42.662;23.352;2023-03-23T00:31:03;94897.09;;;7.24;84.01
41062;BME280;26812;42.662;23.352;2023-03-23T00:33:33;94914.72;;;7.11;84.10
41062;BME280;26812;42.662;23.352;2023-03-23T00:35:59;94911.00;;;7.53;82.26
41062;BME280;26812;42.662;23.352;2023-03-23T00:38:25;94885.16;;;7.16;82.22
41062;BME280;26812;42.662;23.352;2023-03-23T00:40:50;94899.38;;;7.30;81.75
41062;BME280;26812;42.662;23.352;2023-03-23T00:43:17;94918.81;;;7.22;82.85
41062;BME280;26812;42.662;23.352;2023-03-23T00:45:43;94922.41;;;6.99;84.15
41062;BME280;26812;42.662;23.352;2023-03-23T00:48:21;94922.06;;;7.05;84.84
41062;BME280;26812;42.662;23.352;2023-03-23T00:50:47;94921.31;;;6.86;85.60
41062;BME280;26812;42.662;23.352;2023-03-23T00:53:14;94924.00;;;7.00;86.30
41062;BME280;26812;42.662;23.352;2023-03-23T00:55:41;94920.28;;;7.14;85.91
41062;BME280;26812;42.662;23.352;2023-03-23T00:58:07;94909.50;;;7.33;85.60
41062;BME280;26812;42.662;23.352;2023-03-23T01:00:33;94916.84;;;7.28;83.82
41062;BME280;26812;42.662;23.352;2023-03-23T01:02:58;94927.69;;;7.50;84.07
41062;BME280;26812;42.662;23.352;2023-03-23T01:05:23;94921.13;;;7.56;83.91
41062;BME280;26812;42.662;23.352;2023-03-23T01:07:49;94924.50;;;7.62;80.26
41062;BME280;26812;42.662;23.352;2023-03-23T01:10:15;94914.06;;;7.33;81.02
41062;BME280;26812;42.662;23.352;2023-03-23T01:12:44;94912.75;;;7.30;80.89
41062;BME280;26812;42.662;23.352;2023-03-23T01:15:15;94919.91;;;7.21;81.39
41062;BME280;26812;42.662;23.352;2023-03-23T01:17:42;94901.75;;;6.85;83.07
41062;BME280;26812;42.662;23.352;2023-03-23T01:20:07;94913.16;;;6.77;83.96
41062;BME280;26812;42.662;23.352;2023-03-23T01:22:33;94914.75;;;6.60;84.83
41062;BME280;26812;42.662;23.352;2023-03-23T01:24:58;94916.72;;;6.54;86.52
41062;BME280;26812;42.662;23.352;2023-03-23T01:27:24;94911.41;;;6.68;86.03
41062;BME280;26812;42.662;23.352;2023-03-23T01:29:49;94873.09;;;6.53;86.18
41062;BME280;26812;42.662;23.352;2023-03-23T01:32:15;94913.78;;;6.88;85.53
41062;BME280;26812;42.662;23.352;2023-03-23T01:34:41;94906.56;;;6.70;85.81
41062;BME280;26812;42.662;23.352;2023-03-23T01:37:06;94899.09;;;6.99;86.77
41062;BME280;26812;42.662;23.352;2023-03-23T01:39:31;94851.81;;;7.08;85.29
41062;BME280;26812;42.662;23.352;2023-03-23T01:41:57;94886.00;;;7.44;82.99
41062;BME280;26812;42.662;23.352;2023-03-23T01:46:48;94887.06;;;7.29;83.07
41062;BME280;26812;42.662;23.352;2023-03-23T01:49:17;94894.59;;;7.27;84.73
41062;BME280;26812;42.662;23.352;2023-03-23T01:51:54;94885.38;;;7.61;82.87
41062;BME280;26812;42.662;23.352;2023-03-23T01:54:23;94886.69;;;7.50;82.12
41062;BME280;26812;42.662;23.352;2023-03-23T01:56:59;94877.13;;;7.30;83.40
41062;BME280;26812;42.662;23.352;2023-03-23T01:59:27;94883.50;;;7.47;83.30
41062;BME280;26812;42.662;23.352;2023-03-23T02:01:55;94865.81;;;7.60;81.52
41062;BME280;26812;42.662;23.352;2023-03-23T02:04:22;94873.78;;;7.52;80.87
41062;BME280;26812;42.662;23.352;2023-03-23T02:06:49;94887.25;;;7.33;82.64
41062;BME280;26812;42.662;23.352;2023-03-23T02:09:15;94888.66;;;7.30;83.15
41062;BME280;26812;42.662;23.352;2023-03-23T02:11:45;94867.22;;;7.30;82.74
41062;BME280;26812;42.662;23.352;2023-03-23T02:14:13;94890.75;;;7.47;83.53
41062;BME280;26812;42.662;23.352;2023-03-23T02:16:47;94885.19;;;7.57;82.32
41062;BME280;26812;42.662;23.352;2023-03-23T02:22:07;94888.47;;;7.82;81.33
41062;BME280;26812;42.662;23.352;2023-03-23T02:36:01;94894.72;;;7.50;80.13
41062;BME280;26812;42.662;23.352;2023-03-23T02:39:10;94891.34;;;7.44;78.88
41062;BME280;26812;42.662;23.352;2023-03-23T02:41:45;94890.72;;;7.33;80.32
41062;BME280;26812;42.662;23.352;2023-03-23T02:44:22;94886.00;;;7.71;78.04
41062;BME280;26812;42.662;23.352;2023-03-23T02:46:48;94886.47;;;7.32;79.27
41062;BME280;26812;42.662;23.352;2023-03-23T02:49:17;94886.47;;;7.32;79.59
41062;BME280;26812;42.662;23.352;2023-03-23T02:51:44;94893.31;;;7.25;80.13
41062;BME280;26812;42.662;23.352;2023-03-23T02:54:12;94902.25;;;7.34;80.21
41062;BME280;26812;42.662;23.352;2023-03-23T02:56:39;94914.59;;;7.48;78.95
41062;BME280;26812;42.662;23.352;2023-03-23T02:59:05;94894.63;;;7.41;79.36
41062;BME280;26812;42.662;23.352;2023-03-23T03:04:09;94923.56;;;7.11;80.48
41062;BME280;26812;42.662;23.352;2023-03-23T03:09:57;94939.44;;;7.08;81.29
41062;BME280;26812;42.662;23.352;2023-03-23T03:18:25;94951.16;;;7.12;81.22
41062;BME280;26812;42.662;23.352;2023-03-23T03:20:55;94952.75;;;7.13;81.60
41062;BME280;26812;42.662;23.352;2023-03-23T03:23:24;94946.69;;;7.07;81.67
41062;BME280;26812;42.662;23.352;2023-03-23T03:25:52;94938.63;;;7.07;82.83
41062;BME280;26812;42.662;23.352;2023-03-23T03:28:23;94938.63;;;7.07;81.53
41062;BME280;26812;42.662;23.352;2023-03-23T03:31:01;94940.56;;;7.34;80.15
41062;BME280;26812;42.662;23.352;2023-03-23T03:33:29;94946.50;;;7.18;80.47
41062;BME280;26812;42.662;23.352;2023-03-23T03:35:59;94946.28;;;6.81;82.44
41062;BME280;26812;42.662;23.352;2023-03-23T03:38:26;94947.22;;;6.91;83.39
41062;BME280;26812;42.662;23.352;2023-03-23T03:40:53;94945.22;;;6.96;82.69
41062;BME280;26812;42.662;23.352;2023-03-23T03:43:18;94942.53;;;7.15;81.38
41062;BME280;26812;42.662;23.352;2023-03-23T03:45:44;94939.13;;;7.09;80.33
41062;BME280;26812;42.662;23.352;2023-03-23T03:48:10;94949.00;;;6.95;81.34
41062;BME280;26812;42.662;23.352;2023-03-23T03:50:36;94925.84;;;6.53;83.26
41062;BME280;26812;42.662;23.352;2023-03-23T03:53:02;94950.28;;;6.98;82.56
41062;BME280;26812;42.662;23.352;2023-03-23T03:55:28;94924.66;;;6.78;81.36
41062;BME280;26812;42.662;23.352;2023-03-23T03:57:54;94924.25;;;6.33;82.82
41062;BME280;26812;42.662;23.352;2023-03-23T04:00:20;94950.44;;;6.55;84.85
41062;BME280;26812;42.662;23.352;2023-03-23T04:02:48;94945.72;;;6.66;84.50
41062;BME280;26812;42.662;23.352;2023-03-23T04:05:20;94939.66;;;6.93;84.47
41062;BME280;26812;42.662;23.352;2023-03-23T04:07:46;94937.78;;;6.93;84.32
41062;BME280;26812;42.662;23.352;2023-03-23T04:10:17;94945.38;;;7.05;83.32
41062;BME280;26812;42.662;23.352;2023-03-23T04:12:45;94936.56;;;7.04;83.18
41062;BME280;26812;42.662;23.352;2023-03-23T04:15:11;94937.63;;;7.36;80.48
41062;BME280;26812;42.662;23.352;2023-03-23T04:17:36;94925.19;;;6.94;80.41
41062;BME280;26812;42.662;23.352;2023-03-23T04:20:04;94924.88;;;6.63;82.31
41062;BME280;26812;42.662;23.352;2023-03-23T04:22:40;94922.41;;;6.66;84.07
41062;BME280;26812;42.662;23.352;2023-03-23T04:25:09;94943.25;;;7.02;82.92
41062;BME280;26812;42.662;23.352;2023-03-23T04:27:36;94937.97;;;7.29;80.71
41062;BME280;26812;42.662;23.352;2023-03-23T04:30:01;94923.91;;;6.91;80.44
41062;BME280;26812;42.662;23.352;2023-03-23T04:32:28;94941.63;;;6.87;81.17
41062;BME280;26812;42.662;23.352;2023-03-23T04:35:03;94930.59;;;6.75;83.11
41062;BME280;26812;42.662;23.352;2023-03-23T04:37:28;94947.59;;;6.84;83.24
41062;BME280;26812;42.662;23.352;2023-03-23T04:39:57;94924.78;;;6.87;82.90
41062;BME280;26812;42.662;23.352;2023-03-23T04:42:30;94935.16;;;7.07;83.19
41062;BME280;26812;42.662;23.352;2023-03-23T04:44:59;94934.69;;;7.32;79.90
41062;BME280;26812;42.662;23.352;2023-03-23T04:47:26;94943.25;;;7.02;80.42
41062;BME280;26812;42.662;23.352;2023-03-23T04:49:57;94933.19;;;6.80;81.96
41062;BME280;26812;42.662;23.352;2023-03-23T04:52:24;94951.34;;;6.83;82.78
41062;BME280;26812;42.662;23.352;2023-03-23T04:54:51;94957.88;;;6.77;82.88
41062;BME280;26812;42.662;23.352;2023-03-23T04:57:17;94960.31;;;6.92;82.80
41062;BME280;26812;42.662;23.352;2023-03-23T04:59:42;94956.63;;;7.21;82.38
41062;BME280;26812;42.662;23.352;2023-03-23T05:02:15;94945.06;;;7.53;79.79
41062;BME280;26812;42.662;23.352;2023-03-23T05:04:42;94946.50;;;7.31;79.61
41062;BME280;26812;42.662;23.352;2023-03-23T05:07:07;94967.59;;;7.05;80.82
41062;BME280;26812;42.662;23.352;2023-03-23T05:09:34;94966.22;;;7.08;82.03
41062;BME280;26812;42.662;23.352;2023-03-23T05:12:08;94959.69;;;7.14;82.52
41062;BME280;26812;42.662;23.352;2023-03-23T05:14:34;94974.75;;;7.42;82.38
41062;BME280;26812;42.662;23.352;2023-03-23T05:16:59;94951.38;;;7.29;81.40
41062;BME280;26812;42.662;23.352;2023-03-23T05:19:25;94967.63;;;7.79;79.08
41062;BME280;26812;42.662;23.352;2023-03-23T05:21:50;94969.53;;;7.78;78.26
41062;BME280;26812;42.662;23.352;2023-03-23T05:24:16;94950.34;;;7.58;79.18
41062;BME280;26812;42.662;23.352;2023-03-23T05:26:42;94970.19;;;7.57;80.36
41062;BME280;26812;42.662;23.352;2023-03-23T05:29:09;94973.97;;;7.56;81.11
41062;BME280;26812;42.662;23.352;2023-03-23T05:31:36;94983.63;;;7.70;80.45
41062;BME280;26812;42.662;23.352;2023-03-23T05:34:02;94983.53;;;7.89;78.71
41062;BME280;26812;42.662;23.352;2023-03-23T05:36:28;94975.16;;;7.63;79.50
41062;BME280;26812;42.662;23.352;2023-03-23T05:38:54;94985.53;;;7.70;80.29
41062;BME280;26812;42.662;23.352;2023-03-23T05:41:19;94979.56;;;7.87;79.66
41062;BME280;26812;42.662;23.352;2023-03-23T05:43:46;94975.19;;;8.04;76.78
41062;BME280;26812;42.662;23.352;2023-03-23T05:46:11;94980.66;;;7.72;79.11
41062;BME280;26812;42.662;23.352;2023-03-23T05:48:37;94985.91;;;7.91;79.26
41062;BME280;26812;42.662;23.352;2023-03-23T05:51:03;95004.63;;;8.09;78.92
41062;BME280;26812;42.662;23.352;2023-03-23T05:53:28;94977.94;;;8.54;76.16
41062;BME280;26812;42.662;23.352;2023-03-23T05:55:59;94998.34;;;8.42;77.10
41062;BME280;26812;42.662;23.352;2023-03-23T05:58:25;94985.69;;;8.56;77.08
41062;BME280;26812;42.662;23.352;2023-03-23T06:00:50;95014.00;;;8.89;74.69
41062;BME280;26812;42.662;23.352;2023-03-23T06:03:16;94999.56;;;9.08;75.18
41062;BME280;26812;42.662;23.352;2023-03-23T06:05:43;94979.66;;;9.31;74.07
41062;BME280;26812;42.662;23.352;2023-03-23T06:08:09;94981.06;;;9.51;73.11
41062;BME280;26812;42.662;23.352;2023-03-23T06:10:35;95009.59;;;10.31;72.15
41062;BME280;26812;42.662;23.352;2023-03-23T06:13:01;94996.84;;;10.63;70.58
41062;BME280;26812;42.662;23.352;2023-03-23T06:15:27;95016.09;;;11.04;67.95
41062;BME280;26812;42.662;23.352;2023-03-23T06:18:00;95012.59;;;11.21;65.74
41062;BME280;26812;42.662;23.352;2023-03-23T06:20:26;95009.41;;;11.28;65.80
41062;BME280;26812;42.662;23.352;2023-03-23T06:22:52;95023.56;;;11.33;64.34
41062;BME280;26812;42.662;23.352;2023-03-23T06:25:18;95025.28;;;11.29;65.02
41062;BME280;26812;42.662;23.352;2023-03-23T06:27:43;95016.72;;;11.27;64.53
41062;BME280;26812;42.662;23.352;2023-03-23T06:30:11;95011.50;;;11.13;65.65
41062;BME280;26812;42.662;23.352;2023-03-23T06:32:37;95022.91;;;11.45;63.85
41062;BME280;26812;42.662;23.352;2023-03-23T06:35:03;95026.19;;;11.59;63.75
41062;BME280;26812;42.662;23.352;2023-03-23T06:37:29;94999.22;;;11.68;63.14
41062;BME280;26812;42.662;23.352;2023-03-23T06:39:55;94991.09;;;12.32;61.59
41062;BME280;26812;42.662;23.352;2023-03-23T06:42:22;95011.44;;;13.30;58.88
41062;BME280;26812;42.662;23.352;2023-03-23T06:44:55;95019.00;;;14.48;55.45
41062;BME280;26812;42.662;23.352;2023-03-23T06:47:23;95019.25;;;15.32;51.82
41062;BME280;26812;42.662;23.352;2023-03-23T06:49:48;95028.28;;;16.35;50.22
41062;BME280;26812;42.662;23.352;2023-03-23T06:52:14;95013.38;;;17.66;45.50
41062;BME280;26812;42.662;23.352;2023-03-23T06:54:39;95025.53;;;19.29;41.96
41062;BME280;26812;42.662;23.352;2023-03-23T06:57:05;95025.13;;;20.61;39.02
41062;BME280;26812;42.662;23.352;2023-03-23T06:59:30;95015.88;;;22.11;35.70
41062;BME280;26812;42.662;23.352;2023-03-23T07:01:56;95029.28;;;23.47;33.39
41062;BME280;26812;42.662;23.352;2023-03-23T07:04:21;94992.44;;;22.88;31.72
41062;BME280;26812;42.662;23.352;2023-03-23T07:06:48;95009.59;;;23.70;30.88
41062;BME280;26812;42.662;23.352;2023-03-23T07:09:14;95035.44;;;25.23;29.13
41062;BME280;26812;42.662;23.352;2023-03-23T07:11:40;95028.72;;;26.03;27.79
41062;BME280;26812;42.662;23.352;2023-03-23T07:14:07;95031.66;;;27.93;25.69
41062;BME280;26812;42.662;23.352;2023-03-23T07:16:33;95023.63;;;29.07;23.78
41062;BME280;26812;42.662;23.352;2023-03-23T07:18:59;95022.00;;;30.29;22.64
41062;BME280;26812;42.662;23.352;2023-03-23T07:21:24;95011.84;;;30.89;21.62
41062;BME280;26812;42.662;23.352;2023-03-23T07:23:50;94997.34;;;31.20;21.18
41062;BME280;26812;42.662;23.352;2023-03-23T07:26:15;95015.91;;;32.49;20.15
41062;BME280;26812;42.662;23.352;2023-03-23T07:28:42;95012.78;;;31.81;19.90
41062;BME280;26812;42.662;23.352;2023-03-23T07:31:07;95007.72;;;32.54;19.46
41062;BME280;26812;42.662;23.352;2023-03-23T07:33:34;94994.03;;;33.09;19.15
41062;BME280;26812;42.662;23.352;2023-03-23T07:36:01;94996.19;;;32.74;19.30
41062;BME280;26812;42.662;23.352;2023-03-23T07:38:27;95000.38;;;28.12;22.99
41062;BME280;26812;42.662;23.352;2023-03-23T07:40:53;95005.16;;;28.12;24.84
41062;BME280;26812;42.662;23.352;2023-03-23T07:43:19;95014.44;;;30.29;21.67
41062;BME280;26812;42.662;23.352;2023-03-23T07:45:45;95017.88;;;31.61;20.28
41062;BME280;26812;42.662;23.352;2023-03-23T07:48:10;95021.75;;;31.29;20.14
41062;BME280;26812;42.662;23.352;2023-03-23T07:50:36;95024.03;;;29.71;22.53
41062;BME280;26812;42.662;23.352;2023-03-23T07:53:03;95021.53;;;30.18;22.14
41062;BME280;26812;42.662;23.352;2023-03-23T07:55:28;95016.59;;;30.38;21.38
41062;BME280;26812;42.662;23.352;2023-03-23T07:57:54;95017.41;;;30.77;20.72
41062;BME280;26812;42.662;23.352;2023-03-23T08:00:21;95025.47;;;30.33;21.09
41062;BME280;26812;42.662;23.352;2023-03-23T08:02:53;95027.22;;;30.27;21.18
41062;BME280;26812;42.662;23.352;2023-03-23T08:05:20;95015.47;;;30.48;20.50
41062;BME280;26812;42.662;23.352;2023-03-23T08:07:47;95032.09;;;29.65;21.74
41062;BME280;26812;42.662;23.352;2023-03-23T08:10:14;95004.72;;;29.51;21.86
41062;BME280;26812;42.662;23.352;2023-03-23T08:12:41;95029.03;;;29.14;22.38
41062;BME280;26812;42.662;23.352;2023-03-23T08:15:09;95030.94;;;29.17;22.52
41062;BME280;26812;42.662;23.352;2023-03-23T08:17:38;95016.22;;;28.52;22.51
41062;BME280;26812;42.662;23.352;2023-03-23T08:20:06;95005.94;;;27.06;24.57
41062;BME280;26812;42.662;23.352;2023-03-23T08:22:42;95021.13;;;26.95;24.93
41062;BME280;26812;42.662;23.352;2023-03-23T08:25:12;94998.09;;;27.48;24.06
41062;BME280;26812;42.662;23.352;2023-03-23T08:27:40;95020.09;;;29.23;21.72
41062;BME280;26812;42.662;23.352;2023-03-23T08:30:13;94926.25;;;29.34;21.21
41062;BME280;26812;42.662;23.352;2023-03-23T08:32:39;94985.66;;;28.71;21.81
41062;BME280;26812;42.662;23.352;2023-03-23T08:35:07;94957.81;;;26.77;22.86
41062;BME280;26812;42.662;23.352;2023-03-23T08:37:34;95005.31;;;26.95;22.96
41062;BME280;26812;42.662;23.352;2023-03-23T08:40:00;95020.94;;;28.35;21.89
41062;BME280;26812;42.662;23.352;2023-03-23T08:42:34;94948.31;;;28.60;20.77
41062;BME280;26812;42.662;23.352;2023-03-23T08:45:01;94948.16;;;28.51;20.83
41062;BME280;26812;42.662;23.352;2023-03-23T08:47:26;94932.25;;;28.87;20.59
41062;BME280;26812;42.662;23.352;2023-03-23T08:49:52;94965.25;;;28.29;21.44
41062;BME280;26812;42.662;23.352;2023-03-23T08:52:19;94959.06;;;28.74;21.48
41062;BME280;26812;42.662;23.352;2023-03-23T08:54:45;94948.78;;;29.81;19.34
41062;BME280;26812;42.662;23.352;2023-03-23T08:57:13;94993.22;;;29.65;18.60
41062;BME280;26812;42.662;23.352;2023-03-23T08:59:43;95013.09;;;27.04;20.91
41062;BME280;26812;42.662;23.352;2023-03-23T09:02:12;94979.19;;;25.54;23.73
41062;BME280;26812;42.662;23.352;2023-03-23T09:04:40;94985.41;;;24.21;23.80
41062;BME280;26812;42.662;23.352;2023-03-23T09:07:26;94940.88;;;21.67;27.22
41062;BME280;26812;42.662;23.352;2023-03-23T09:09:51;94985.91;;;20.50;30.00
41062;BME280;26812;42.662;23.352;2023-03-23T09:12:43;94988.31;;;21.06;29.71
41062;BME280;26812;42.662;23.352;2023-03-23T09:15:17;95004.81;;;21.17;30.24
41062;BME280;26812;42.662;23.352;2023-03-23T09:17:45;94994.88;;;21.53;28.56
41062;BME280;26812;42.662;23.352;2023-03-23T09:20:13;94984.72;;;21.64;29.21
41062;BME280;26812;42.662;23.352;2023-03-23T09:22:44;94964.94;;;22.24;27.44
41062;BME280;26812;42.662;23.352;2023-03-23T09:25:12;95019.47;;;22.40;27.44
41062;BME280;26812;42.662;23.352;2023-03-23T09:27:38;94990.06;;;22.65;26.98
41062;BME280;26812;42.662;23.352;2023-03-23T09:30:11;95004.50;;;23.54;26.56
41062;BME280;26812;42.662;23.352;2023-03-23T09:32:38;95001.75;;;24.45;26.11
41062;BME280;26812;42.662;23.352;2023-03-23T09:35:07;95007.94;;;24.64;25.62
41062;BME280;26812;42.662;23.352;2023-03-23T09:37:34;95013.34;;;24.12;25.96
41062;BME280;26812;42.662;23.352;2023-03-23T09:40:06;94955.81;;;23.51;25.61
41062;BME280;26812;42.662;23.352;2023-03-23T09:48:51;94991.44;;;21.74;28.49
41062;BME280;26812;42.662;23.352;2023-03-23T09:56:58;94974.34;;;22.05;27.25
41062;BME280;26812;42.662;23.352;2023-03-23T09:59:27;94984.44;;;21.94;27.91
41062;BME280;26812;42.662;23.352;2023-03-23T10:02:21;94974.53;;;20.92;27.80
41062;BME280;26812;42.662;23.352;2023-03-23T10:04:54;94980.56;;;20.64;29.42
41062;BME280;26812;42.662;23.352;2023-03-23T10:07:21;94955.81;;;19.08;31.60
41062;BME280;26812;42.662;23.352;2023-03-23T10:09:51;94977.50;;;18.98;31.98
41062;BME280;26812;42.662;23.352;2023-03-23T10:15:17;94986.69;;;19.72;31.09
41062;BME280;26812;42.662;23.352;2023-03-23T10:28:38;94971.56;;;18.66;33.67
41062;BME280;26812;42.662;23.352;2023-03-23T10:31:10;94972.22;;;18.36;34.65
41062;BME280;26812;42.662;23.352;2023-03-23T10:33:40;94970.34;;;18.89;33.19
41062;BME280;26812;42.662;23.352;2023-03-23T10:36:21;94971.94;;;19.50;32.06
41062;BME280;26812;42.662;23.352;2023-03-23T10:39:13;94971.09;;;20.13;31.08
41062;BME280;26812;42.662;23.352;2023-03-23T10:41:41;94969.59;;;20.57;31.18
41062;BME280;26812;42.662;23.352;2023-03-23T10:44:15;94959.94;;;20.77;31.32
41062;BME280;26812;42.662;23.352;2023-03-23T10:46:49;94968.94;;;21.39;30.14
41062;BME280;26812;42.662;23.352;2023-03-23T10:49:28;94961.00;;;22.07;30.69
41062;BME280;26812;42.662;23.352;2023-03-23T10:57:40;94956.38;;;21.24;29.84
41062;BME280;26812;42.662;23.352;2023-03-23T11:02:57;94943.38;;;19.74;30.96
41062;BME280;26812;42.662;23.352;2023-03-23T11:05:26;94938.25;;;19.39;31.39
41062;BME280;26812;42.662;23.352;2023-03-23T11:07:55;94963.13;;;19.94;31.70
41062;BME280;26812;42.662;23.352;2023-03-23T11:10:27;94951.06;;;20.43;31.76
41062;BME280;26812;42.662;23.352;2023-03-23T11:12:58;94946.50;;;20.13;31.18
41062;BME280;26812;42.662;23.352;2023-03-23T11:15:29;94926.84;;;20.45;29.76
41062;BME280;26812;42.662;23.352;2023-03-23T11:18:04;94950.88;;;20.66;30.46
41062;BME280;26812;42.662;23.352;2023-03-23T11:20:35;94920.53;;;20.92;30.06
41062;BME280;26812;42.662;23.352;2023-03-23T11:23:13;94914.91;;;21.36;29.15
41062;BME280;26812;42.662;23.352;2023-03-23T11:26:14;94938.91;;;20.88;30.64
41062;BME280;26812;42.662;23.352;2023-03-23T11:31:39;94925.28;;;21.02;30.62
41062;BME280;26812;42.662;23.352;2023-03-23T11:34:17;94915.91;;;21.07;29.83
41062;BME280;26812;42.662;23.352;2023-03-23T11:36:49;94923.91;;;21.37;29.54
41062;BME280;26812;42.662;23.352;2023-03-23T11:39:32;94909.50;;;21.54;29.28
41062;BME280;26812;42.662;23.352;2023-03-23T11:42:00;94927.63;;;21.87;28.73
41062;BME280;26812;42.662;23.352;2023-03-23T11:44:41;94919.06;;;22.31;27.98
41062;BME280;26812;42.662;23.352;2023-03-23T11:47:36;94895.97;;;22.36;28.40
41062;BME280;26812;42.662;23.352;2023-03-23T11:52:59;94908.13;;;22.35;29.11
41062;BME280;26812;42.662;23.352;2023-03-23T11:55:32;94900.97;;;21.91;28.15
41062;BME280;26812;42.662;23.352;2023-03-23T11:58:04;94902.94;;;21.98;28.22
41062;BME280;26812;42.662;23.352;2023-03-23T12:00:33;94904.91;;;22.01;28.10
41062;BME280;26812;42.662;23.352;2023-03-23T12:08:59;94898.69;;;19.97;30.55
41062;BME280;26812;42.662;23.352;2023-03-23T12:28:50;94898.31;;;20.42;31.36
41062;BME280;26812;42.662;23.352;2023-03-23T12:36:34;94884.44;;;20.76;30.08
41062;BME280;26812;42.662;23.352;2023-03-23T12:44:30;94871.78;;;20.02;30.40
41062;BME280;26812;42.662;23.352;2023-03-23T12:47:11;94875.47;;;20.24;31.05
41062;BME280;26812;42.662;23.352;2023-03-23T13:02:52;94862.78;;;21.19;30.35
41062;BME280;26812;42.662;23.352;2023-03-23T13:08:01;94851.47;;;19.26;32.13
41062;BME280;26812;42.662;23.352;2023-03-23T13:10:38;94865.81;;;19.52;32.46
41062;BME280;26812;42.662;23.352;2023-03-23T13:13:13;94850.97;;;18.83;33.14
41062;BME280;26812;42.662;23.352;2023-03-23T13:16:00;94865.91;;;19.26;33.60
41062;BME280;26812;42.662;23.352;2023-03-23T13:18:34;94857.06;;;18.73;33.94
41062;BME280;26812;42.662;23.352;2023-03-23T13:23:42;94850.50;;;19.81;32.73
41062;BME280;26812;42.662;23.352;2023-03-23T13:26:19;94836.97;;;19.96;32.04
41062;BME280;26812;42.662;23.352;2023-03-23T13:31:19;94836.44;;;18.49;34.17
41062;BME280;26812;42.662;23.352;2023-03-23T13:33:51;94856.59;;;17.91;35.22
41062;BME280;26812;42.662;23.352;2023-03-23T13:36:26;94842.41;;;17.59;35.97
41062;BME280;26812;42.662;23.352;2023-03-23T13:38:52;94834.94;;;17.14;36.66
41062;BME280;26812;42.662;23.352;2023-03-23T13:41:19;94835.19;;;16.86;37.49
41062;BME280;26812;42.662;23.352;2023-03-23T13:43:47;94802.09;;;17.46;37.34
41062;BME280;26812;42.662;23.352;2023-03-23T13:48:50;94798.75;;;18.58;35.16
41062;BME280;26812;42.662;23.352;2023-03-23T13:56:42;94794.44;;;18.27;34.66
41062;BME280;26812;42.662;23.352;2023-03-23T13:59:17;94821.50;;;18.39;34.51
41062;BME280;26812;42.662;23.352;2023-03-23T14:02:26;94840.31;;;18.48;34.68
41062;BME280;26812;42.662;23.352;2023-03-23T14:04:44;94813.13;;;18.55;34.48
41062;BME280;26812;42.662;23.352;2023-03-23T14:07:16;94816.13;;;18.73;34.29
41062;BME280;26812;42.662;23.352;2023-03-23T14:09:44;94792.31;;;18.13;34.97
41062;BME280;26812;42.662;23.352;2023-03-23T14:12:15;94829.09;;;18.53;34.74
41062;BME280;26812;42.662;23.352;2023-03-23T14:14:47;94796.59;;;18.14;34.51
41062;BME280;26812;42.662;23.352;2023-03-23T14:17:17;94813.81;;;17.95;35.13
41062;BME280;26812;42.662;23.352;2023-03-23T14:19:49;94797.06;;;17.71;35.65
41062;BME280;26812;42.662;23.352;2023-03-23T14:22:24;94774.63;;;17.12;36.37
41062;BME280;26812;42.662;23.352;2023-03-23T14:24:52;94806.88;;;17.75;35.84
41062;BME280;26812;42.662;23.352;2023-03-23T14:27:22;94812.50;;;18.09;35.70
41062;BME280;26812;42.662;23.352;2023-03-23T14:30:05;94750.81;;;17.51;36.24
41062;BME280;26812;42.662;23.352;2023-03-23T14:32:32;94810.66;;;18.16;35.77
41062;BME280;26812;42.662;23.352;2023-03-23T14:34:58;94817.91;;;17.82;36.03
41062;BME280;26812;42.662;23.352;2023-03-23T14:37:25;94792.84;;;17.50;36.37
41062;BME280;26812;42.662;23.352;2023-03-23T14:39:53;94813.47;;;17.74;36.10
41062;BME280;26812;42.662;23.352;2023-03-23T14:42:26;94802.69;;;17.58;37.10
41062;BME280;26812;42.662;23.352;2023-03-23T14:44:52;94809.38;;;17.84;36.22
41062;BME280;26812;42.662;23.352;2023-03-23T14:47:36;94805.25;;;17.48;37.09
41062;BME280;26812;42.662;23.352;2023-03-23T14:50:06;94787.44;;;17.31;37.30
41062;BME280;26812;42.662;23.352;2023-03-23T14:52:36;94814.25;;;17.52;37.67
41062;BME280;26812;42.662;23.352;2023-03-23T14:55:13;94812.78;;;17.77;37.23
41062;BME280;26812;42.662;23.352;2023-03-23T14:57:42;94790.41;;;17.45;37.23
41062;BME280;26812;42.662;23.352;2023-03-23T15:00:20;94803.13;;;17.83;36.78
41062;BME280;26812;42.662;23.352;2023-03-23T15:02:52;94804.63;;;17.58;36.98
41062;BME280;26812;42.662;23.352;2023-03-23T15:05:23;94799.50;;;17.53;37.19
41062;BME280;26812;42.662;23.352;2023-03-23T15:07:53;94778.72;;;17.45;37.09
41062;BME280;26812;42.662;23.352;2023-03-23T15:10:22;94718.44;;;17.00;37.51
41062;BME280;26812;42.662;23.352;2023-03-23T15:12:49;94814.63;;;17.50;37.82
41062;BME280;26812;42.662;23.352;2023-03-23T15:17:50;94792.31;;;17.45;38.17
41062;BME280;26812;42.662;23.352;2023-03-23T15:20:23;94800.16;;;17.46;37.94